Time;durP1;ratioP1;P1;durP2;ratioP2;P2;SDS_P1;SDS_P2;PMS_P1;PMS_P2;Temp;Humidity;BMP_temperature;BMP_pressure;BME280_temperature;BME280_humidity;BME280_pressure;Samples;Min_cycle;Max_cycle;Signal;HPM_P1;HPM_P2
2023/05/27 00:00:34;;;;;;;9.60;7.50;;;;;;;15.72;100.00;97066.78;5066406;28;20214;-60
2023/05/27 00:03:01;;;;;;;8.35;7.45;;;;;;;15.73;100.00;97063.94;5068022;28;20230;-60
2023/05/27 00:05:28;;;;;;;9.75;7.35;;;;;;;15.72;100.00;97070.31;5067918;28;20202;-60
2023/05/27 00:07:54;;;;;;;10.07;7.88;;;;;;;15.78;100.00;97058.97;5072419;28;20202;-60
2023/05/27 00:10:21;;;;;;;9.40;7.80;;;;;;;15.85;100.00;97049.31;5075316;28;20206;-61
2023/05/27 00:12:48;;;;;;;8.68;7.75;;;;;;;15.94;100.00;97053.63;5068424;28;20195;-60
2023/05/27 00:15:17;;;;;;;9.13;7.75;;;;;;;15.99;100.00;97050.47;5064303;28;20202;-60
2023/05/27 00:17:44;;;;;;;8.57;7.07;;;;;;;16.09;100.00;97050.28;5064971;28;20226;-61
2023/05/27 00:20:12;;;;;;;8.27;7.10;;;;;;;16.12;100.00;97042.78;5065000;28;20241;-60
2023/05/27 00:22:39;;;;;;;8.30;7.03;;;;;;;16.14;100.00;97043.47;5064893;28;20289;-61
2023/05/27 00:25:06;;;;;;;7.45;6.63;;;;;;;16.13;100.00;97041.78;5065096;28;20230;-59
2023/05/27 00:27:32;;;;;;;7.32;6.50;;;;;;;16.16;100.00;97046.78;5065368;28;20640;-61
2023/05/27 00:30:00;;;;;;;8.05;7.18;;;;;;;16.13;100.00;97055.13;5064181;28;20207;-60
2023/05/27 00:32:27;;;;;;;11.25;7.63;;;;;;;16.14;100.00;97047.97;5064587;28;20273;-60
2023/05/27 00:34:53;;;;;;;7.55;6.75;;;;;;;16.06;100.00;97045.28;5064263;28;20570;-60
2023/05/27 00:37:20;;;;;;;7.85;7.05;;;;;;;16.01;100.00;97050.31;5065021;28;20217;-60
2023/05/27 00:39:52;;;;;;;9.80;6.82;;;;;;;15.98;100.00;97051.47;5064493;28;20202;-59
2023/05/27 00:42:18;;;;;;;8.27;7.03;;;;;;;15.91;100.00;97053.97;5064313;28;20589;-61
2023/05/27 00:44:45;;;;;;;8.30;7.32;;;;;;;15.83;100.00;97053.16;5064906;28;20254;-60
2023/05/27 00:47:15;;;;;;;8.88;7.13;;;;;;;15.80;100.00;97042.81;5065000;28;20539;-59
2023/05/27 00:49:45;;;;;;;8.40;7.50;;;;;;;15.86;100.00;97042.97;5063759;28;20223;-60
2023/05/27 00:52:12;;;;;;;8.30;7.13;;;;;;;15.84;100.00;97041.47;5063826;28;20203;-60
2023/05/27 00:54:39;;;;;;;10.25;7.47;;;;;;;15.84;100.00;97047.63;5064972;28;20241;-60
2023/05/27 00:57:06;;;;;;;9.68;7.20;;;;;;;15.77;100.00;97038.63;5062666;28;20207;-61
2023/05/27 00:59:33;;;;;;;8.10;7.30;;;;;;;15.72;100.00;97045.47;5064339;28;20211;-61
2023/05/27 01:01:59;;;;;;;10.05;7.78;;;;;;;15.70;100.00;97040.28;5064404;28;20199;-60
2023/05/27 01:04:27;;;;;;;8.07;7.28;;;;;;;15.71;100.00;97039.28;5064319;28;20230;-60
2023/05/27 01:07:02;;;;;;;10.10;6.88;;;;;;;15.70;100.00;97042.09;5064234;28;20199;-59
2023/05/27 01:09:33;;;;;;;8.23;7.40;;;;;;;15.71;100.00;97044.63;5063669;28;20214;-60
2023/05/27 01:12:05;;;;;;;7.90;7.10;;;;;;;15.76;100.00;97042.31;5046540;28;20226;-60
2023/05/27 01:14:32;;;;;;;9.15;6.72;;;;;;;15.77;100.00;97038.63;5045125;28;20203;-59
2023/05/27 01:17:00;;;;;;;10.50;6.65;;;;;;;15.78;100.00;97032.31;5043979;28;20206;-60
2023/05/27 01:19:31;;;;;;;7.23;6.43;;;;;;;15.78;100.00;97036.78;5044008;28;20212;-61
2023/05/27 01:22:00;;;;;;;8.60;7.03;;;;;;;15.77;100.00;97033.28;5045222;28;20636;-60
2023/05/27 01:24:28;;;;;;;9.63;6.85;;;;;;;15.76;100.00;97030.81;5044098;28;20222;-60
2023/05/27 01:26:56;;;;;;;7.15;6.45;;;;;;;15.78;99.52;97032.31;5043709;28;20285;-59
2023/05/27 01:29:23;;;;;;;7.97;7.18;;;;;;;15.74;100.00;97025.63;5043395;28;20231;-59
2023/05/27 01:31:54;;;;;;;7.93;7.10;;;;;;;15.71;100.00;97022.47;5043250;28;20625;-60
2023/05/27 01:34:35;;;;;;;9.68;7.32;;;;;;;15.69;100.00;97022.63;5043323;28;20629;-59
2023/05/27 01:37:06;;;;;;;8.00;7.20;;;;;;;15.62;100.00;97020.78;5043364;28;20294;-60
2023/05/27 01:39:35;;;;;;;11.77;7.05;;;;;;;15.59;100.00;97027.25;5043100;28;20207;-60
2023/05/27 01:42:02;;;;;;;7.03;6.32;;;;;;;15.56;100.00;97018.75;5043482;28;20199;-60
2023/05/27 01:44:30;;;;;;;9.98;6.65;;;;;;;15.44;100.00;97021.72;5043302;28;20269;-60
2023/05/27 01:47:00;;;;;;;8.70;7.10;;;;;;;15.34;100.00;97017.53;5042542;28;20563;-60
2023/05/27 01:49:26;;;;;;;7.28;6.57;;;;;;;15.31;100.00;97013.38;5042665;28;20288;-60
2023/05/27 01:51:53;;;;;;;8.95;7.03;;;;;;;15.28;100.00;97023.50;5043008;28;20195;-59
2023/05/27 01:54:20;;;;;;;7.25;6.57;;;;;;;15.27;100.00;97021.84;5043660;28;20211;-60
2023/05/27 01:56:47;;;;;;;9.63;8.68;;;;;;;15.20;100.00;97021.66;5044714;28;20203;-59
2023/05/27 01:59:14;;;;;;;8.57;7.35;;;;;;;15.13;100.00;97019.81;5042799;28;20211;-59
2023/05/27 02:01:41;;;;;;;8.48;7.57;;;;;;;15.02;100.00;97020.94;5042691;28;20195;-60
2023/05/27 02:04:08;;;;;;;11.67;7.40;;;;;;;15.02;100.00;97026.25;5041952;28;20318;-60
2023/05/27 02:06:35;;;;;;;8.05;6.90;;;;;;;15.02;100.00;97022.78;5042989;28;20212;-59
2023/05/27 02:09:03;;;;;;;9.50;6.80;;;;;;;14.93;100.00;97024.56;5043577;28;20218;-61
2023/05/27 02:11:30;;;;;;;8.07;6.50;;;;;;;14.90;100.00;97023.06;5042512;28;20200;-60
2023/05/27 02:13:59;;;;;;;8.30;6.77;;;;;;;14.93;100.00;97028.06;5043299;28;20221;-60
2023/05/27 02:16:28;;;;;;;9.60;7.27;;;;;;;14.95;100.00;97028.72;5046218;28;20210;-59
2023/05/27 02:18:54;;;;;;;9.20;7.00;;;;;;;14.97;100.00;97027.75;5055543;28;20646;-60
2023/05/27 02:21:20;;;;;;;7.80;6.67;;;;;;;14.88;100.00;97027.72;5052475;28;20243;-61
2023/05/27 02:23:47;;;;;;;9.00;7.13;;;;;;;14.83;100.00;97026.53;5048404;28;20219;-61
2023/05/27 02:26:14;;;;;;;21.60;17.57;;;;;;;14.75;100.00;97026.50;5042894;28;20214;-61
2023/05/27 02:28:40;;;;;;;11.03;9.83;;;;;;;14.70;100.00;97026.16;5044142;28;20510;-61
2023/05/27 02:31:08;;;;;;;15.77;9.10;;;;;;;14.64;100.00;97024.09;5044555;28;21318;-61
2023/05/27 02:33:35;;;;;;;9.50;6.83;;;;;;;14.67;100.00;97027.28;5042431;28;20199;-60
2023/05/27 02:36:01;;;;;;;9.10;7.00;;;;;;;14.56;100.00;97021.41;5042219;28;20203;-61
2023/05/27 02:38:30;;;;;;;8.47;6.77;;;;;;;14.53;100.00;97024.38;5042786;28;20199;-59
2023/05/27 02:40:59;;;;;;;9.23;7.00;;;;;;;14.49;100.00;97028.38;5042162;28;20203;-60
2023/05/27 02:43:25;;;;;;;7.30;6.53;;;;;;;14.38;100.00;97018.81;5043008;28;20560;-61
2023/05/27 02:45:54;;;;;;;10.67;7.47;;;;;;;14.33;100.00;97021.91;5042305;28;20557;-60
2023/05/27 02:48:22;;;;;;;7.47;6.75;;;;;;;14.28;100.00;97015.38;5043918;28;20208;-60
2023/05/27 02:50:48;;;;;;;8.43;6.93;;;;;;;14.27;100.00;97019.06;5043586;28;20214;-60
2023/05/27 02:53:15;;;;;;;7.40;6.73;;;;;;;14.16;100.00;97020.16;5043373;28;20260;-60
2023/05/27 02:55:41;;;;;;;8.37;6.90;;;;;;;14.16;100.00;97020.16;5041895;28;20203;-60
2023/05/27 02:58:08;;;;;;;8.03;7.00;;;;;;;14.22;100.00;97013.34;5042391;28;20194;-60
2023/05/27 03:00:35;;;;;;;10.23;7.40;;;;;;;14.15;100.00;97010.50;5041314;28;20200;-59
2023/05/27 03:03:03;;;;;;;11.33;7.23;;;;;;;14.17;100.00;97005.03;5041791;28;20200;-60
2023/05/27 03:05:32;;;;;;;8.60;7.10;;;;;;;14.11;100.00;97016.25;5040271;28;20258;-59
2023/05/27 03:08:00;;;;;;;9.73;6.90;;;;;;;14.06;100.00;97015.91;5042205;28;20200;-59
2023/05/27 03:10:26;;;;;;;11.50;7.57;;;;;;;14.09;100.00;97018.25;5041763;28;20203;-59
2023/05/27 03:12:55;;;;;;;10.17;7.87;;;;;;;14.03;100.00;97013.56;5041512;28;20212;-59
2023/05/27 03:15:22;;;;;;;11.90;7.47;;;;;;;14.02;100.00;97014.56;5041208;28;20250;-60
2023/05/27 03:17:49;;;;;;;10.47;7.23;;;;;;;14.02;100.00;97017.22;5041771;28;20239;-60
2023/05/27 03:20:16;;;;;;;8.37;7.40;;;;;;;14.00;100.00;97019.19;5041202;28;20250;-59
2023/05/27 03:22:44;;;;;;;8.50;7.27;;;;;;;13.88;100.00;97014.13;5041953;28;20195;-60
2023/05/27 03:25:11;;;;;;;7.63;6.63;;;;;;;13.89;100.00;97010.47;5042238;28;20220;-61
2023/05/27 03:27:37;;;;;;;8.03;6.87;;;;;;;13.82;100.00;97019.19;5041687;28;20203;-59
2023/05/27 03:30:07;;;;;;;8.87;7.10;;;;;;;13.73;100.00;97023.63;5040557;28;20582;-60
2023/05/27 03:32:33;;;;;;;9.03;7.63;;;;;;;13.63;100.00;97025.53;5041497;28;20653;-59
2023/05/27 03:35:00;;;;;;;10.13;7.60;;;;;;;13.66;100.00;97017.25;5041652;28;20627;-60
2023/05/27 03:37:26;;;;;;;10.20;7.27;;;;;;;13.67;100.00;97018.09;5041688;28;20210;-61
2023/05/27 03:39:55;;;;;;;9.10;7.27;;;;;;;13.58;100.00;97027.81;5041154;28;20202;-59
2023/05/27 03:42:21;;;;;;;9.87;7.13;;;;;;;13.53;100.00;97019.47;5041554;28;20567;-60
2023/05/27 03:44:48;;;;;;;7.57;6.67;;;;;;;13.63;100.00;97027.38;5041465;28;20238;-61
2023/05/27 03:47:17;;;;;;;9.67;6.83;;;;;;;13.66;100.00;97019.09;5041554;28;20207;-59
2023/05/27 03:49:43;;;;;;;9.60;7.90;;;;;;;13.56;100.00;97016.50;5039946;28;20540;-61
2023/05/27 03:52:11;;;;;;;8.97;8.03;;;;;;;13.61;100.00;97021.34;5041342;28;20587;-60
2023/05/27 03:54:37;;;;;;;10.13;7.47;;;;;;;13.49;100.00;97020.75;5041952;28;20203;-60
2023/05/27 03:57:05;;;;;;;8.47;7.47;;;;;;;13.43;100.00;97018.69;5041845;28;20227;-60
2023/05/27 03:59:32;;;;;;;10.13;6.80;;;;;;;13.42;100.00;97019.69;5041201;28;20294;-61
2023/05/27 04:01:58;;;;;;;9.70;7.27;;;;;;;13.40;100.00;97017.19;5040613;28;20210;-60
2023/05/27 04:04:25;;;;;;;9.30;7.10;;;;;;;13.37;100.00;97016.66;5040744;28;20250;-59
2023/05/27 04:06:53;;;;;;;10.43;7.60;;;;;;;13.39;100.00;97022.66;5041490;28;20204;-60
2023/05/27 04:09:19;;;;;;;7.97;7.17;;;;;;;13.41;100.00;97023.34;5040942;28;20828;-60
2023/05/27 04:11:48;;;;;;;11.40;6.53;;;;;;;13.39;100.00;97030.63;5042287;28;20203;-59
2023/05/27 04:14:16;;;;;;;9.70;7.50;;;;;;;13.42;100.00;97019.69;5041216;28;20653;-60
2023/05/27 04:16:43;;;;;;;10.77;7.17;;;;;;;13.49;100.00;97026.06;5040772;28;20208;-59
2023/05/27 04:19:10;;;;;;;9.17;7.10;;;;;;;13.53;100.00;97030.09;5040983;28;20399;-60
2023/05/27 04:21:37;;;;;;;8.80;7.07;;;;;;;13.49;100.00;97023.41;5041352;28;20268;-60
2023/05/27 04:24:04;;;;;;;12.50;7.17;;;;;;;13.59;100.00;97026.00;5040659;28;20231;-60
2023/05/27 04:26:31;;;;;;;9.37;6.80;;;;;;;13.63;100.00;97027.38;5041657;28;20215;-59
2023/05/27 04:28:59;;;;;;;11.77;8.03;;;;;;;13.64;100.00;97024.53;5044309;28;20200;-59
2023/05/27 04:31:29;;;;;;;8.93;6.70;;;;;;;13.64;100.00;97027.19;5044620;28;20257;-61
2023/05/27 04:33:55;;;;;;;11.20;6.50;;;;;;;13.81;100.00;97034.34;5044765;28;20235;-59
2023/05/27 04:36:25;;;;;;;7.90;6.77;;;;;;;13.87;100.00;97028.41;5045037;28;20212;-61
2023/05/27 04:38:52;;;;;;;9.00;7.40;;;;;;;14.03;100.00;97029.53;5045390;28;20234;-60
2023/05/27 04:41:21;;;;;;;8.00;7.10;;;;;;;14.15;100.00;97022.94;5050109;28;20199;-60
2023/05/27 04:43:48;;;;;;;8.43;6.93;;;;;;;14.18;100.00;97022.63;5051912;28;20255;-60
2023/05/27 04:46:14;;;;;;;7.33;6.50;;;;;;;14.33;100.00;97034.38;5050799;28;20214;-60
2023/05/27 04:48:44;;;;;;;11.33;6.83;;;;;;;14.47;100.00;97035.66;5046218;28;20206;-60
2023/05/27 04:51:11;;;;;;;10.03;6.87;;;;;;;14.54;100.00;97034.88;5060708;28;20183;-61
2023/05/27 04:53:37;;;;;;;9.60;6.73;;;;;;;14.58;100.00;97036.22;5062151;28;20199;-60
2023/05/27 04:56:03;;;;;;;9.13;6.50;;;;;;;14.69;100.00;97024.47;5063047;28;20207;-61
2023/05/27 04:58:30;;;;;;;7.60;6.80;;;;;;;14.77;100.00;97029.84;5062210;28;20200;-61
2023/05/27 05:00:57;;;;;;;10.03;6.70;;;;;;;14.86;100.00;97024.38;5045460;28;20663;-59
2023/05/27 05:03:36;;;;;;;9.53;6.13;;;;;;;15.04;100.00;97028.78;5043551;28;20619;-59
2023/05/27 05:06:05;;;;;;;8.57;6.23;;;;;;;15.19;97.02;97027.16;5044322;28;20199;-60
2023/05/27 05:08:32;;;;;;;7.90;6.53;;;;;;;15.38;94.97;97025.03;5044026;28;20203;-59
2023/05/27 05:10:59;;;;;;;9.90;6.45;;;;;;;15.64;90.11;97024.94;5044019;28;20224;-60
2023/05/27 05:13:28;;;;;;;10.47;6.00;;;;;;;15.87;87.92;97025.16;5043524;28;20638;-59
2023/05/27 05:15:55;;;;;;;13.53;6.53;;;;;;;16.04;87.31;97028.63;5043333;28;20308;-59
2023/05/27 05:18:21;;;;;;;8.35;6.25;;;;;;;16.16;86.61;97030.78;5044911;28;20600;-61
2023/05/27 05:20:48;;;;;;;8.02;6.28;;;;;;;16.39;85.01;97028.25;5043222;28;20237;-59
2023/05/27 05:23:17;;;;;;;12.90;6.60;;;;;;;16.62;83.54;97025.72;5044208;28;20196;-60
2023/05/27 05:25:46;;;;;;;8.77;6.53;;;;;;;16.83;80.86;97029.50;5043814;28;20239;-60
2023/05/27 05:28:13;;;;;;;7.72;6.03;;;;;;;16.99;80.39;97033.13;5043020;28;20834;-59
2023/05/27 05:30:39;;;;;;;9.68;6.28;;;;;;;17.24;79.47;97032.84;5042698;28;20541;-60
2023/05/27 05:33:06;;;;;;;6.78;5.78;;;;;;;17.36;79.63;97027.91;5044872;28;20296;-59
2023/05/27 05:35:33;;;;;;;8.10;5.68;;;;;;;17.65;79.38;97036.13;5043290;28;20240;-59
2023/05/27 05:37:59;;;;;;;11.52;6.00;;;;;;;17.70;74.82;97032.94;5049326;28;20208;-60
2023/05/27 05:40:27;;;;;;;8.90;6.18;;;;;;;17.91;75.91;97033.09;5052189;28;20217;-59
2023/05/27 05:42:53;;;;;;;8.75;6.45;;;;;;;17.93;75.25;97028.41;5050868;28;20203;-59
2023/05/27 05:45:20;;;;;;;9.32;5.85;;;;;;;18.14;73.45;97022.41;5043680;28;20645;-59
2023/05/27 05:47:46;;;;;;;12.15;6.15;;;;;;;18.39;75.40;97035.34;5043682;28;20199;-59
2023/05/27 05:50:13;;;;;;;7.95;5.90;;;;;;;18.67;73.91;97032.13;5043039;28;20212;-60
2023/05/27 05:52:40;;;;;;;8.40;6.20;;;;;;;18.82;72.41;97035.59;5043701;28;20225;-59
2023/05/27 05:55:08;;;;;;;10.48;5.93;;;;;;;18.95;71.72;97034.97;5043290;28;20210;-59
2023/05/27 05:57:36;;;;;;;9.40;6.75;;;;;;;19.11;71.05;97032.09;5043392;28;20208;-58
2023/05/27 06:00:03;;;;;;;16.50;6.55;;;;;;;19.22;69.46;97031.63;5042882;28;20212;-60
2023/05/27 06:02:30;;;;;;;10.60;6.07;;;;;;;19.23;66.64;97036.81;5043117;28;20234;-59
2023/05/27 06:04:56;;;;;;;10.23;6.57;;;;;;;19.50;69.51;97029.91;5042678;28;20219;-60
2023/05/27 06:07:23;;;;;;;10.38;6.13;;;;;;;19.66;68.61;97029.69;5042580;28;20545;-59
2023/05/27 06:09:49;;;;;;;8.10;5.90;;;;;;;19.75;67.09;97028.56;5042558;28;20207;-60
2023/05/27 06:12:17;;;;;;;18.10;6.82;;;;;;;19.77;66.90;97025.66;5043203;28;20204;-60
2023/05/27 06:14:46;;;;;;;12.93;6.57;;;;;;;20.07;66.45;97029.06;5042632;28;20200;-60
2023/05/27 06:17:13;;;;;;;8.65;6.28;;;;;;;19.91;66.42;97029.34;5041330;28;20211;-59
2023/05/27 06:19:40;;;;;;;10.05;6.28;;;;;;;20.09;67.07;97024.31;5042335;28;20242;-60
2023/05/27 06:22:06;;;;;;;13.68;7.13;;;;;;;20.33;64.17;97021.28;5043196;28;20211;-59
2023/05/27 06:24:32;;;;;;;9.90;6.68;;;;;;;20.16;66.33;97027.88;5042922;28;20333;-60
2023/05/27 06:27:00;;;;;;;12.45;6.57;;;;;;;20.51;64.28;97029.66;5042464;28;20199;-61
2023/05/27 06:29:27;;;;;;;8.73;6.07;;;;;;;20.47;64.42;97025.72;5042249;28;20219;-59
2023/05/27 06:31:55;;;;;;;7.95;5.82;;;;;;;20.64;65.28;97029.75;5042377;28;20203;-61
2023/05/27 06:34:22;;;;;;;9.70;6.30;;;;;;;20.70;63.08;97015.53;5042594;28;20597;-61
2023/05/27 06:36:48;;;;;;;10.10;6.18;;;;;;;20.92;62.03;97024.34;5042281;28;20211;-62
2023/05/27 06:39:15;;;;;;;9.82;6.97;;;;;;;20.85;61.02;97020.78;5042444;28;20235;-60
2023/05/27 06:41:42;;;;;;;8.68;6.20;;;;;;;20.69;63.97;97024.63;5042283;28;20645;-59
2023/05/27 06:44:09;;;;;;;10.52;6.60;;;;;;;20.64;63.95;97023.56;5042664;28;20712;-61
2023/05/27 06:46:36;;;;;;;9.60;6.38;;;;;;;20.80;62.94;97017.84;5044100;28;20203;-60
2023/05/27 06:49:04;;;;;;;9.65;6.93;;;;;;;20.93;62.94;97017.94;5051500;28;20211;-60
2023/05/27 06:51:33;;;;;;;8.25;5.95;;;;;;;21.01;63.27;97012.38;5052003;28;20199;-60
2023/05/27 06:53:59;;;;;;;8.40;6.22;;;;;;;21.26;62.12;97020.81;5051248;28;20213;-61
2023/05/27 06:56:26;;;;;;;9.38;6.60;;;;;;;21.38;63.01;97007.63;5051269;28;20207;-61
2023/05/27 06:58:53;;;;;;;17.80;6.75;;;;;;;21.50;61.43;97008.72;5049961;28;20252;-59
2023/05/27 07:01:19;;;;;;;8.23;5.75;;;;;;;21.65;60.23;97007.50;5050755;28;20217;-59
2023/05/27 07:03:47;;;;;;;10.20;6.60;;;;;;;21.88;60.88;97006.31;5050449;28;20215;-60
2023/05/27 07:06:16;;;;;;;8.93;6.72;;;;;;;22.05;61.33;97007.59;5053140;28;20555;-62
2023/05/27 07:08:42;;;;;;;8.15;6.28;;;;;;;22.03;57.99;97010.50;5055207;28;20211;-61
2023/05/27 07:11:09;;;;;;;9.07;6.30;;;;;;;22.06;58.77;97009.25;5047569;28;20655;-60
2023/05/27 07:13:35;;;;;;;8.48;5.82;;;;;;;22.05;60.60;97002.22;5046238;28;20211;-60
2023/05/27 07:16:04;;;;;;;8.18;5.88;;;;;;;22.26;58.27;97005.53;5042182;28;20200;-60
2023/05/27 07:18:33;;;;;;;9.77;6.68;;;;;;;22.39;57.88;97010.09;5042550;28;20210;-59
2023/05/27 07:20:59;;;;;;;11.13;6.15;;;;;;;;;;5041922;28;20227;-60
2023/05/27 07:23:27;;;;;;;7.88;6.22;;;;;;;22.68;60.85;97016.94;5042522;28;20288;-61
2023/05/27 07:25:53;;;;;;;9.38;6.53;;;;;;;22.72;56.26;97005.53;5041855;28;20216;-60
2023/05/27 07:28:20;;;;;;;8.30;6.15;;;;;;;22.69;56.67;97011.34;5041946;28;20212;-60
2023/05/27 07:30:47;;;;;;;7.60;6.38;;;;;;;22.53;58.37;97000.94;5041361;28;20199;-61
2023/05/27 07:33:14;;;;;;;11.70;6.28;;;;;;;22.19;58.10;96999.31;5040683;28;20207;-60
2023/05/27 07:35:44;;;;;;;10.45;6.32;;;;;;;22.55;59.03;96998.91;5042133;28;20199;-60
2023/05/27 07:38:11;;;;;;;8.40;6.30;;;;;;;22.61;57.58;97003.44;5041758;28;20297;-60
2023/05/27 07:40:39;;;;;;;10.00;6.93;;;;;;;22.47;57.29;96999.09;5040792;28;20545;-59
2023/05/27 07:43:06;;;;;;;8.60;6.85;;;;;;;22.84;59.47;96997.63;5041265;28;20261;-61
2023/05/27 07:45:36;;;;;;;10.10;6.70;;;;;;;22.87;57.65;97001.75;5041624;28;20234;-60
2023/05/27 07:48:03;;;;;;;10.27;6.35;;;;;;;23.16;60.70;96993.19;5048554;28;20208;-61
2023/05/27 07:50:29;;;;;;;10.18;6.60;;;;;;;23.25;55.82;96994.59;5056663;28;20210;-62
2023/05/27 07:52:55;;;;;;;7.50;6.18;;;;;;;23.24;55.52;96991.06;5045666;28;20247;-60
2023/05/27 07:55:22;;;;;;;10.63;6.45;;;;;;;23.39;58.24;96996.19;5040223;28;20199;-60
2023/05/27 07:57:50;;;;;;;8.75;6.55;;;;;;;23.45;54.74;96986.44;5041943;28;20202;-60
2023/05/27 08:00:19;;;;;;;9.10;6.63;;;;;;;23.29;53.88;96982.31;5041070;28;20200;-60
2023/05/27 08:02:47;;;;;;;9.50;7.20;;;;;;;23.01;55.90;96982.63;5042764;28;20199;-59
2023/05/27 08:05:14;;;;;;;8.70;6.82;;;;;;;23.27;56.99;96982.56;5044919;28;20314;-60
2023/05/27 08:07:45;;;;;;;10.70;6.70;;;;;;;23.53;58.10;96981.59;5046294;28;20214;-60
2023/05/27 08:10:11;;;;;;;9.70;6.80;;;;;;;23.52;55.83;96981.84;5044917;28;20202;-60
2023/05/27 08:12:38;;;;;;;10.85;7.50;;;;;;;23.61;54.21;96978.66;5044755;28;20633;-60
2023/05/27 08:15:07;;;;;;;9.45;6.50;;;;;;;23.52;54.93;96985.38;5044502;28;20203;-60
2023/05/27 08:17:33;;;;;;;8.18;6.82;;;;;;;23.31;58.89;96977.56;5044774;28;20644;-60
2023/05/27 08:20:00;;;;;;;9.68;6.88;;;;;;;23.59;56.07;96980.75;5044782;28;20231;-61
2023/05/27 08:22:28;;;;;;;9.82;7.00;;;;;;;23.33;58.33;96980.84;5044703;28;20225;-60
2023/05/27 08:24:55;;;;;;;8.02;6.60;;;;;;;23.64;57.86;96974.69;5046484;28;20568;-60
2023/05/27 08:27:22;;;;;;;8.57;6.78;;;;;;;23.97;55.50;96977.19;5045082;28;20288;-61
2023/05/27 08:29:48;;;;;;;8.38;6.78;;;;;;;23.96;55.18;96970.13;5044258;28;20650;-59
2023/05/27 08:32:16;;;;;;;7.75;6.65;;;;;;;23.79;57.75;96957.16;5044496;28;20210;-60
2023/05/27 08:34:42;;;;;;;9.82;6.82;;;;;;;23.75;56.03;96955.09;5044518;28;20204;-61
2023/05/27 08:37:09;;;;;;;11.23;6.68;;;;;;;23.91;56.34;96953.75;5044353;28;20214;-59
2023/05/27 08:39:35;;;;;;;8.57;7.03;;;;;;;23.79;55.89;96951.75;5044507;28;20196;-61
2023/05/27 08:42:04;;;;;;;11.63;6.60;;;;;;;24.00;54.97;96944.31;5043761;28;20316;-60
2023/05/27 08:44:30;;;;;;;10.02;7.50;;;;;;;24.02;55.15;96945.75;5044741;28;20204;-60
2023/05/27 08:46:58;;;;;;;9.32;7.18;;;;;;;24.18;55.42;96944.41;5045297;28;20224;-61
2023/05/27 08:49:28;;;;;;;11.02;7.70;;;;;;;23.99;54.74;96931.84;5044514;28;20230;-60
2023/05/27 08:51:56;;;;;;;7.85;7.05;;;;;;;23.97;53.56;96942.06;5044258;28;20230;-61
2023/05/27 08:54:22;;;;;;;9.00;6.70;;;;;;;24.01;56.24;96936.00;5045773;28;20207;-60
2023/05/27 08:56:50;;;;;;;9.15;7.50;;;;;;;24.20;54.25;96935.03;5044470;28;20196;-60
2023/05/27 08:59:16;;;;;;;9.88;7.72;;;;;;;23.99;52.69;96929.16;5044482;28;20218;-60
2023/05/27 09:01:43;;;;;;;10.57;6.88;;;;;;;24.17;57.27;96934.66;5044305;28;20210;-60
2023/05/27 09:04:09;;;;;;;13.77;8.02;;;;;;;24.24;52.78;96924.59;5044816;28;20211;-60
2023/05/27 09:06:37;;;;;;;8.48;7.53;;;;;;;24.33;54.48;96931.41;5044654;28;20231;-61
2023/05/27 09:09:03;;;;;;;7.57;6.82;;;;;;;24.58;56.32;96925.94;5043793;28;20206;-59
2023/05/27 09:11:35;;;;;;;10.43;7.90;;;;;;;24.40;53.91;96934.88;5045241;28;20211;-60
2023/05/27 09:14:02;;;;;;;8.70;7.15;;;;;;;24.71;54.57;96926.63;5044377;28;20354;-60
2023/05/27 09:16:29;;;;;;;9.60;7.22;;;;;;;24.61;55.45;96923.63;5043708;28;20621;-61
2023/05/27 09:18:57;;;;;;;11.80;8.45;;;;;;;24.70;54.55;96934.94;5044478;28;20203;-60
2023/05/27 09:21:26;;;;;;;8.75;6.30;;;;;;;25.04;56.96;96922.75;5044028;28;20908;-61
2023/05/27 09:23:56;;;;;;;8.52;7.18;;;;;;;25.04;51.00;96917.34;5044608;28;20261;-61
2023/05/27 09:26:23;;;;;;;7.90;6.93;;;;;;;24.87;54.99;96919.00;5049364;28;20243;-61
2023/05/27 09:28:49;;;;;;;10.13;8.00;;;;;;;24.69;54.52;96915.19;5054840;28;20215;-60
2023/05/27 09:31:16;;;;;;;9.10;7.28;;;;;;;24.72;53.24;96922.88;5057335;28;20214;-60
2023/05/27 09:33:42;;;;;;;10.77;7.40;;;;;;;24.96;54.96;96907.63;5052742;28;20203;-59
2023/05/27 09:36:10;;;;;;;7.95;6.68;;;;;;;25.15;56.38;96909.25;5054150;28;20203;-60
2023/05/27 09:38:37;;;;;;;9.38;7.20;;;;;;;25.21;52.86;96905.66;5064639;28;20204;-60
2023/05/27 09:41:07;;;;;;;8.65;7.20;;;;;;;24.95;53.00;96902.44;5065004;28;20234;-60
2023/05/27 09:43:35;;;;;;;8.77;7.20;;;;;;;24.87;53.73;96914.41;5066018;28;20207;-60
2023/05/27 09:46:03;;;;;;;8.25;7.32;;;;;;;24.90;54.00;96903.16;5064771;28;20279;-60
2023/05/27 09:48:31;;;;;;;7.78;6.97;;;;;;;25.12;53.58;96898.06;5065400;28;20192;-61
2023/05/27 09:50:58;;;;;;;8.52;6.25;;;;;;;25.37;53.02;96904.16;5065464;28;20187;-60
2023/05/27 09:53:25;;;;;;;9.77;7.50;;;;;;;25.60;51.92;96896.19;5065679;28;20874;-60
2023/05/27 09:55:54;;;;;;;8.75;6.55;;;;;;;25.69;52.74;96902.06;5066138;28;20180;-60
2023/05/27 09:58:25;;;;;;;7.35;6.25;;;;;;;25.64;53.49;96888.41;5069179;28;20277;-61
2023/05/27 10:00:52;;;;;;;7.20;6.50;;;;;;;25.72;52.52;96902.44;5073025;28;20207;-60
2023/05/27 10:03:23;;;;;;;10.63;6.07;;;;;;;26.18;55.14;96896.28;5067063;28;20203;-48
2023/05/27 10:05:51;;;;;;;8.70;6.05;;;;;;;26.15;52.17;96895.91;5062819;28;20261;-50
2023/05/27 10:08:17;;;;;;;7.35;5.72;;;;;;;26.29;53.40;96891.94;5060518;28;20204;-47
2023/05/27 10:10:45;;;;;;;4.65;4.00;;;;;;;26.33;57.72;96887.69;5053569;28;20577;-47
2023/05/27 10:13:13;;;;;;;5.72;5.20;;;;;;;26.19;51.27;96891.69;5045194;28;20221;-47
2023/05/27 10:15:47;;;;;;;9.07;6.43;;;;;;;26.53;53.92;96880.03;5044084;28;20659;-45
2023/05/27 10:18:23;;;;;;;7.18;5.40;;;;;;;26.69;52.04;96887.44;5044365;28;20529;-49
2023/05/27 10:20:50;;;;;;;9.50;6.28;;;;;;;26.65;51.76;96880.00;5043882;28;20243;-47
2023/05/27 10:23:20;;;;;;;7.75;6.13;;;;;;;26.81;53.04;96884.69;5044314;28;20207;-51
2023/05/27 10:25:48;;;;;;;8.52;6.50;;;;;;;26.83;52.75;96887.19;5043855;28;20234;-41
2023/05/27 10:28:24;;;;;;;6.45;5.80;;;;;;;26.91;52.18;96884.94;5043702;28;20233;-41
2023/05/27 10:30:53;;;;;;;10.18;6.55;;;;;;;26.73;50.86;96883.19;5043912;28;20203;-41
2023/05/27 10:33:31;;;;;;;7.22;6.38;;;;;;;26.98;53.43;96863.09;5044013;28;20211;-40
2023/05/27 10:36:04;;;;;;;8.82;6.30;;;;;;;26.66;50.01;96868.91;5044482;28;20203;-40
2023/05/27 10:38:31;;;;;;;8.52;5.97;;;;;;;26.85;52.32;96864.19;5044369;28;20203;-39
2023/05/27 10:41:00;;;;;;;8.75;7.07;;;;;;;26.89;50.44;96859.91;5043722;28;20207;-40
2023/05/27 10:43:28;;;;;;;8.00;6.57;;;;;;;26.65;48.41;96863.72;5044240;28;20822;-41
2023/05/27 10:46:04;;;;;;;8.85;6.68;;;;;;;26.68;50.89;96865.94;5045555;28;20227;-40
2023/05/27 10:48:32;;;;;;;7.43;6.15;;;;;;;26.90;51.65;96861.56;5061059;28;20199;-41
2023/05/27 10:50:58;;;;;;;7.10;5.90;;;;;;;26.99;51.86;96857.44;5060430;28;20199;-42
2023/05/27 10:53:26;;;;;;;6.75;6.05;;;;;;;27.06;53.79;96858.09;5060543;28;20203;-41
2023/05/27 10:55:53;;;;;;;7.55;6.78;;;;;;;26.67;49.97;96867.03;5056640;28;20211;-41
2023/05/27 10:58:21;;;;;;;7.50;5.95;;;;;;;26.64;49.69;96862.88;5042426;28;20207;-40
2023/05/27 11:00:52;;;;;;;7.22;6.53;;;;;;;26.89;51.19;96859.13;5042133;28;20260;-44
2023/05/27 11:03:23;;;;;;;7.03;6.32;;;;;;;26.87;49.75;96855.78;5041253;28;20207;-41
2023/05/27 11:05:58;;;;;;;6.13;5.55;;;;;;;26.95;52.14;96848.09;5041933;28;20258;-45
2023/05/27 11:08:25;;;;;;;7.07;6.13;;;;;;;26.69;50.11;96844.00;5041874;28;20684;-41
2023/05/27 11:10:52;;;;;;;8.93;5.85;;;;;;;26.52;50.05;96848.53;5042176;28;20291;-40
2023/05/27 11:13:18;;;;;;;6.95;6.25;;;;;;;26.96;50.54;96832.66;5042757;28;20195;-40
2023/05/27 11:15:46;;;;;;;7.20;6.22;;;;;;;26.72;48.93;96843.53;5043613;28;20204;-40
2023/05/27 11:18:15;;;;;;;8.18;6.57;;;;;;;26.23;48.61;96835.94;5044122;28;20647;-38
2023/05/27 11:20:43;;;;;;;6.63;6.03;;;;;;;26.64;49.00;96827.63;5042748;28;20749;-41
2023/05/27 11:23:09;;;;;;;7.43;6.00;;;;;;;26.44;47.93;96829.91;5040707;28;20569;-41
2023/05/27 11:25:43;;;;;;;8.00;6.15;;;;;;;26.72;49.70;96824.53;5042177;28;20206;-41
2023/05/27 11:28:17;;;;;;;10.48;6.03;;;;;;;26.61;47.86;96821.84;5042034;28;20595;-38
2023/05/27 11:30:44;;;;;;;6.30;5.60;;;;;;;26.99;50.21;96807.75;5041139;28;20227;-39